Time;durP1;ratioP1;P1;durP2;ratioP2;P2;SDS_P1;SDS_P2;PMS_P1;PMS_P2;Temp;Humidity;BMP_temperature;BMP_pressure;BME280_temperature;BME280_humidity;BME280_pressure;Samples;Min_cycle;Max_cycle;Signal;HPM_P1;HPM_P2
2024/01/14 00:00:08;;;;;;;32.70;16.00;;;;;;;;;;4858879;29;20559;-89
2024/01/14 00:03:12;;;;;;;33.80;15.40;;;;;;;;;;4859067;29;20563;-89
2024/01/14 00:06:17;;;;;;;34.03;16.33;;;;;;;;;;4869145;29;20625;-90
2024/01/14 00:09:21;;;;;;;24.80;13.20;;;;;;;;;;4847921;29;20560;-90
2024/01/14 00:12:25;;;;;;;27.63;14.77;;;;;;;;;;4847309;29;20575;-90
2024/01/14 00:15:30;;;;;;;25.37;14.80;;;;;;;;;;4868395;29;20661;-90
2024/01/14 00:18:39;;;;;;;31.60;15.73;;;;;;;;;;4857928;29;20575;-89
2024/01/14 00:21:43;;;;;;;33.60;16.63;;;;;;;;;;4846434;29;20565;-90
2024/01/14 00:24:49;;;;;;;33.57;17.10;;;;;;;;;;4857158;29;20638;-89
2024/01/14 00:27:53;;;;;;;30.67;15.77;;;;;;;;;;4867657;29;20544;-90
2024/01/14 00:30:57;;;;;;;31.90;15.37;;;;;;;;;;4835943;29;20561;-89
2024/01/14 00:34:01;;;;;;;32.60;15.90;;;;;;;;;;4846481;29;20569;-89
2024/01/14 00:37:05;;;;;;;33.13;16.17;;;;;;;;;;4856242;29;20914;-89
2024/01/14 00:40:10;;;;;;;35.03;14.80;;;;;;;;;;4866614;29;20579;-90
2024/01/14 00:43:15;;;;;;;27.37;14.67;;;;;;;;;;4856347;29;20555;-90
2024/01/14 00:46:19;;;;;;;27.13;15.17;;;;;;;;;;4855600;29;20969;-90
2024/01/14 00:49:23;;;;;;;33.93;16.67;;;;;;;;;;4856008;29;20559;-89
2024/01/14 00:52:27;;;;;;;33.47;16.70;;;;;;;;;;4855769;29;20556;-89
2024/01/14 00:55:31;;;;;;;31.90;16.30;;;;;;;;;;4866812;29;20997;-89
2024/01/14 00:58:35;;;;;;;39.43;16.83;;;;;;;;;;4865869;29;21112;-89
2024/01/14 01:01:40;;;;;;;32.60;14.93;;;;;;;;;;4844837;29;20574;-90
2024/01/14 01:04:44;;;;;;;29.17;15.23;;;;;;;;;;4866014;29;20634;-90
2024/01/14 01:07:48;;;;;;;29.63;15.03;;;;;;;;;;4865373;29;20560;-89
2024/01/14 01:10:52;;;;;;;25.47;14.43;;;;;;;;;;4844570;29;20899;-89
2024/01/14 01:13:56;;;;;;;29.70;14.53;;;;;;;;;;4866140;29;20559;-89
2024/01/14 01:17:01;;;;;;;29.00;15.40;;;;;;;;;;4854549;29;20576;-89
2024/01/14 01:20:08;;;;;;;33.47;15.20;;;;;;;;;;4864892;29;20563;-90
2024/01/14 01:23:12;;;;;;;32.77;15.30;;;;;;;;;;4854958;29;20559;-90
2024/01/14 01:26:16;;;;;;;32.73;15.50;;;;;;;;;;4854494;29;20607;-90
2024/01/14 01:29:20;;;;;;;32.63;15.23;;;;;;;;;;4854607;29;20559;-89
2024/01/14 01:32:32;;;;;;;29.33;15.80;;;;;;;;;;4855327;29;20547;-90
2024/01/14 01:35:36;;;;;;;33.87;16.53;;;;;;;;;;4843400;29;20642;-90
2024/01/14 01:38:40;;;;;;;36.40;16.60;;;;;;;;;;4843736;29;20577;-89
2024/01/14 01:41:44;;;;;;;36.53;16.73;;;;;;;;;;4854156;29;20559;-89
2024/01/14 01:44:48;;;;;;;34.47;15.03;;;;;;;;;;4853888;29;20642;-90
2024/01/14 01:47:52;;;;;;;34.03;16.43;;;;;;;;;;4857187;29;20922;-90
2024/01/14 01:50:56;;;;;;;29.27;16.13;;;;;;;;;;4847914;29;21144;-89
2024/01/14 01:54:01;;;;;;;31.67;15.87;;;;;;;;;;4864273;29;20575;-89
2024/01/14 01:57:08;;;;;;;31.03;16.10;;;;;;;;;;4853390;29;20571;-89
2024/01/14 02:00:13;;;;;;;32.53;16.53;;;;;;;;;;4853640;29;20559;-89
2024/01/14 02:03:19;;;;;;;33.53;17.10;;;;;;;;;;4822357;29;20630;-90
2024/01/14 02:06:24;;;;;;;35.90;16.83;;;;;;;;;;4854142;29;20607;-90
2024/01/14 02:09:28;;;;;;;32.80;17.40;;;;;;;;;;4843662;29;20571;-90
2024/01/14 02:12:32;;;;;;;34.40;16.60;;;;;;;;;;4853802;29;20556;-90
2024/01/14 02:15:37;;;;;;;32.43;15.60;;;;;;;;;;4864281;29;20661;-90
2024/01/14 02:18:41;;;;;;;34.30;17.23;;;;;;;;;;4842636;29;20554;-90
2024/01/14 02:21:54;;;;;;;34.87;17.40;;;;;;;;;;4864474;29;20559;-89
2024/01/14 02:24:58;;;;;;;31.93;15.83;;;;;;;;;;4852916;29;21219;-89
2024/01/14 02:28:03;;;;;;;36.83;17.70;;;;;;;;;;4863777;29;20548;-90
2024/01/14 02:31:07;;;;;;;38.47;17.37;;;;;;;;;;4852555;29;20556;-89
2024/01/14 02:34:14;;;;;;;35.97;16.83;;;;;;;;;;4852674;29;20714;-89
2024/01/14 02:37:19;;;;;;;37.30;18.33;;;;;;;;;;4852990;29;20556;-89
2024/01/14 02:40:23;;;;;;;35.90;17.10;;;;;;;;;;4852486;29;20567;-90
2024/01/14 02:43:27;;;;;;;37.37;18.20;;;;;;;;;;4852774;29;20914;-89
2024/01/14 02:46:31;;;;;;;33.47;15.70;;;;;;;;;;4837896;29;20615;-89
2024/01/14 02:49:35;;;;;;;37.13;18.17;;;;;;;;;;4863836;29;20559;-89
2024/01/14 02:52:39;;;;;;;35.57;18.07;;;;;;;;;;4842451;29;21100;-89
2024/01/14 02:55:44;;;;;;;33.93;17.20;;;;;;;;;;4864456;29;20990;-89
2024/01/14 02:58:48;;;;;;;38.73;17.97;;;;;;;;;;4854026;29;20553;-90
2024/01/14 03:01:55;;;;;;;38.67;18.37;;;;;;;;;;4843160;29;20591;-89
2024/01/14 03:04:59;;;;;;;39.47;18.43;;;;;;;;;;4853957;29;20642;-89
2024/01/14 03:08:03;;;;;;;37.30;18.27;;;;;;;;;;4854749;29;20607;-88
2024/01/14 03:11:07;;;;;;;38.13;18.77;;;;;;;;;;4857268;29;20559;-89
2024/01/14 03:14:12;;;;;;;35.67;17.83;;;;;;;;;;4845844;29;20645;-89
2024/01/14 03:17:16;;;;;;;36.43;17.73;;;;;;;;;;4867424;29;20571;-89
2024/01/14 03:20:22;;;;;;;35.60;17.70;;;;;;;;;;4867038;29;20558;-90
2024/01/14 03:23:26;;;;;;;34.33;16.80;;;;;;;;;;4867844;29;20590;-89
2024/01/14 03:26:31;;;;;;;34.40;16.60;;;;;;;;;;4845848;29;20603;-90
2024/01/14 03:29:35;;;;;;;36.97;17.77;;;;;;;;;;4857013;29;20555;-89
2024/01/14 03:32:43;;;;;;;37.10;18.07;;;;;;;;;;4845739;29;20555;-90
2024/01/14 03:35:48;;;;;;;34.93;17.30;;;;;;;;;;4845855;29;21002;-90
2024/01/14 03:38:52;;;;;;;41.27;18.47;;;;;;;;;;4867254;29;20566;-89
2024/01/14 03:41:56;;;;;;;39.83;18.77;;;;;;;;;;4866882;29;20559;-90
2024/01/14 03:45:00;;;;;;;40.20;19.40;;;;;;;;;;4866060;29;20638;-90
2024/01/14 03:48:05;;;;;;;42.40;18.37;;;;;;;;;;4856018;29;20622;-90
2024/01/14 03:52:00;;;;;;;43.47;19.83;;;;;;;;;;4867644;29;20906;-89
2024/01/14 03:55:05;;;;;;;46.37;19.13;;;;;;;;;;4855571;29;20642;-89
2024/01/14 03:58:10;;;;;;;36.10;17.37;;;;;;;;;;4866078;29;20911;-90
2024/01/14 04:01:17;;;;;;;39.47;17.97;;;;;;;;;;4856161;29;20555;-89
2024/01/14 04:04:21;;;;;;;44.47;19.03;;;;;;;;;;4866077;29;20993;-89
2024/01/14 04:07:25;;;;;;;38.20;17.60;;;;;;;;;;4865708;29;20607;-87
2024/01/14 04:10:30;;;;;;;43.50;18.47;;;;;;;;;;4855735;29;20915;-87
2024/01/14 04:13:34;;;;;;;41.73;17.33;;;;;;;;;;4865849;29;20551;-86
2024/01/14 04:16:40;;;;;;;42.37;18.77;;;;;;;;;;4854511;29;20631;-87
2024/01/14 04:19:44;;;;;;;35.17;17.67;;;;;;;;;;4843526;29;20556;-86
2024/01/14 04:22:48;;;;;;;40.47;18.43;;;;;;;;;;4864775;29;21152;-87
2024/01/14 04:25:53;;;;;;;41.63;18.43;;;;;;;;;;4832787;29;20634;-87
2024/01/14 04:28:58;;;;;;;41.10;18.77;;;;;;;;;;4854492;29;20540;-87
2024/01/14 04:32:02;;;;;;;42.50;18.57;;;;;;;;;;4854770;29;20572;-87
2024/01/14 04:35:06;;;;;;;43.07;19.33;;;;;;;;;;4854378;29;20634;-87
2024/01/14 04:38:11;;;;;;;44.60;18.70;;;;;;;;;;4843639;29;20906;-87
2024/01/14 04:41:15;;;;;;;44.53;18.53;;;;;;;;;;4854589;29;20555;-86
2024/01/14 04:44:20;;;;;;;39.57;18.00;;;;;;;;;;4843735;29;20634;-87
2024/01/14 04:47:24;;;;;;;42.90;19.43;;;;;;;;;;4843573;29;20611;-86
2024/01/14 04:50:27;;;;;;;41.40;18.13;;;;;;;;;;4854624;29;20555;-87
2024/01/14 04:53:32;;;;;;;35.70;16.27;;;;;;;;;;4864606;29;20571;-87
2024/01/14 04:56:36;;;;;;;37.07;16.90;;;;;;;;;;4843156;29;20551;-86
2024/01/14 04:59:40;;;;;;;40.37;18.20;;;;;;;;;;4853804;29;20555;-86
2024/01/14 05:02:44;;;;;;;40.63;18.87;;;;;;;;;;4843741;29;20567;-87
2024/01/14 05:05:48;;;;;;;41.13;18.07;;;;;;;;;;4853686;29;21215;-86
2024/01/14 05:08:52;;;;;;;38.20;17.80;;;;;;;;;;4869312;29;21136;-87
2024/01/14 05:11:57;;;;;;;37.60;17.90;;;;;;;;;;4871313;29;20559;-87
2024/01/14 05:15:01;;;;;;;30.77;15.20;;;;;;;;;;4843486;29;20657;-87
2024/01/14 05:18:06;;;;;;;32.37;15.27;;;;;;;;;;4853780;29;20552;-87
2024/01/14 05:21:16;;;;;;;36.47;15.47;;;;;;;;;;4853880;29;20559;-87
2024/01/14 05:24:20;;;;;;;30.23;15.20;;;;;;;;;;4863736;29;20635;-87
2024/01/14 05:27:24;;;;;;;36.57;15.90;;;;;;;;;;4842905;29;20607;-87
2024/01/14 05:30:29;;;;;;;33.50;15.03;;;;;;;;;;4864222;29;20555;-87
2024/01/14 05:33:33;;;;;;;37.50;17.80;;;;;;;;;;4843211;29;20571;-87
2024/01/14 05:36:37;;;;;;;46.87;19.63;;;;;;;;;;4853445;29;20559;-87
2024/01/14 05:39:41;;;;;;;44.30;19.63;;;;;;;;;;4853626;29;20574;-86
2024/01/14 05:42:45;;;;;;;44.90;19.00;;;;;;;;;;4864143;29;20576;-87
2024/01/14 05:45:49;;;;;;;37.10;18.23;;;;;;;;;;4852849;29;20638;-87
2024/01/14 05:48:55;;;;;;;44.90;19.83;;;;;;;;;;4853045;29;20962;-87
2024/01/14 05:52:00;;;;;;;45.37;19.27;;;;;;;;;;4853117;29;20556;-87
2024/01/14 05:55:05;;;;;;;44.50;20.13;;;;;;;;;;4852697;29;20638;-86
2024/01/14 05:58:09;;;;;;;48.60;19.97;;;;;;;;;;4853255;29;20555;-87
2024/01/14 06:01:14;;;;;;;42.10;18.50;;;;;;;;;;4863401;29;20915;-86
2024/01/14 06:04:18;;;;;;;43.97;19.57;;;;;;;;;;4863151;29;20638;-86
2024/01/14 06:07:23;;;;;;;41.63;18.90;;;;;;;;;;4842015;29;20615;-87
2024/01/14 06:10:26;;;;;;;39.57;18.27;;;;;;;;;;4863174;29;20567;-87
2024/01/14 06:13:30;;;;;;;34.37;17.30;;;;;;;;;;4864302;29;20556;-87
2024/01/14 06:16:39;;;;;;;37.60;15.43;;;;;;;;;;4852418;29;20595;-87
2024/01/14 06:19:43;;;;;;;36.17;16.63;;;;;;;;;;4852053;29;20547;-87
2024/01/14 06:22:48;;;;;;;35.43;16.17;;;;;;;;;;4862543;29;20551;-86
2024/01/14 06:25:52;;;;;;;34.37;15.20;;;;;;;;;;4842124;29;20642;-87
2024/01/14 06:28:57;;;;;;;30.20;14.13;;;;;;;;;;4852339;29;20611;-86
2024/01/14 06:32:01;;;;;;;35.90;15.07;;;;;;;;;;4842448;29;20568;-87
2024/01/14 06:35:06;;;;;;;35.07;15.67;;;;;;;;;;4863308;29;20989;-87
2024/01/14 06:38:10;;;;;;;36.73;15.13;;;;;;;;;;4842118;29;20555;-86
2024/01/14 06:41:24;;;;;;;38.07;16.13;;;;;;;;;;4852257;29;20551;-87
2024/01/14 06:44:28;;;;;;;35.60;16.07;;;;;;;;;;4841511;29;20644;-87
2024/01/14 06:47:33;;;;;;;39.80;15.37;;;;;;;;;;4862613;29;20622;-87
2024/01/14 06:50:37;;;;;;;33.00;15.27;;;;;;;;;;4852252;29;20913;-87
2024/01/14 06:53:42;;;;;;;31.47;15.87;;;;;;;;;;4862883;29;20567;-87
2024/01/14 06:56:47;;;;;;;36.43;16.97;;;;;;;;;;4862751;29;21101;-87
2024/01/14 06:59:52;;;;;;;34.60;16.50;;;;;;;;;;4852056;29;20551;-87
2024/01/14 07:02:55;;;;;;;35.30;16.77;;;;;;;;;;4851670;29;20575;-87
2024/01/14 07:06:00;;;;;;;40.37;17.70;;;;;;;;;;4841919;29;20638;-87
2024/01/14 07:09:04;;;;;;;49.43;23.97;;;;;;;;;;4851503;29;20622;-87
2024/01/14 07:12:08;;;;;;;40.70;19.03;;;;;;;;;;4852106;29;20559;-87
2024/01/14 07:15:12;;;;;;;38.10;18.40;;;;;;;;;;4862391;29;21246;-87
2024/01/14 07:18:17;;;;;;;38.03;17.20;;;;;;;;;;4852154;29;20555;-87
2024/01/14 07:21:23;;;;;;;34.37;16.33;;;;;;;;;;4852485;29;21116;-77
2024/01/14 07:24:27;;;;;;;41.83;19.57;;;;;;;;;;4852468;29;20631;-85
2024/01/14 07:27:33;;;;;;;34.33;17.13;;;;;;;;;;4843182;29;20611;-85
2024/01/14 07:31:06;;;;;;;39.57;16.70;;;;;;;;;;4852913;29;20555;-85
2024/01/14 07:34:14;;;;;;;34.53;16.30;;;;;;;;;;4843384;29;21195;-85
2024/01/14 07:37:19;;;;;;;39.40;18.00;;;;;;;;;;4864598;29;21100;-84
2024/01/14 07:40:24;;;;;;;37.63;17.23;;;;;;;;;;4864015;29;20567;-85
2024/01/14 07:43:28;;;;;;;38.50;18.67;;;;;;;;;;4853168;29;20579;-85
2024/01/14 07:46:32;;;;;;;37.37;18.37;;;;;;;;;;4863801;29;20552;-85
2024/01/14 07:49:48;;;;;;;38.33;18.20;;;;;;;;;;4852823;29;20611;-84
2024/01/14 07:52:56;;;;;;;37.87;17.97;;;;;;;;;;4853235;29;20556;-85
2024/01/14 07:56:04;;;;;;;40.27;17.57;;;;;;;;;;4854763;29;20634;-84
2024/01/14 07:59:09;;;;;;;39.43;18.47;;;;;;;;;;4845338;29;20555;-85
2024/01/14 08:02:14;;;;;;;40.00;18.40;;;;;;;;;;4866862;29;20563;-84
2024/01/14 08:05:18;;;;;;;42.97;17.87;;;;;;;;;;4866479;29;20626;-84
2024/01/14 08:08:22;;;;;;;40.00;19.13;;;;;;;;;;4856204;29;20607;-85
2024/01/14 08:11:26;;;;;;;38.43;17.23;;;;;;;;;;4856771;29;20559;-85
2024/01/14 08:14:30;;;;;;;38.30;17.43;;;;;;;;;;4856153;29;20650;-85
2024/01/14 08:17:37;;;;;;;44.07;21.53;;;;;;;;;;4846575;29;20576;-84
2024/01/14 08:20:43;;;;;;;47.57;21.33;;;;;;;;;;4846199;29;20563;-85
2024/01/14 08:23:47;;;;;;;42.83;20.60;;;;;;;;;;4855006;29;20571;-85
2024/01/14 08:26:54;;;;;;;43.10;18.37;;;;;;;;;;4866276;29;20563;-84
2024/01/14 08:29:58;;;;;;;42.40;20.30;;;;;;;;;;4853022;29;20547;-85
2024/01/14 08:33:02;;;;;;;43.07;19.10;;;;;;;;;;4857521;29;20966;-84
2024/01/14 08:36:07;;;;;;;41.70;17.83;;;;;;;;;;4861252;29;21235;-84
2024/01/14 08:43:31;;;;;;;36.37;17.73;;;;;;;;;;4855402;29;20910;-88
2024/01/14 08:46:39;;;;;;;40.60;17.10;;;;;;;;;;4844058;29;21109;-89
2024/01/14 08:49:43;;;;;;;36.13;17.83;;;;;;;;;;4865664;29;21050;-88
2024/01/14 08:52:48;;;;;;;37.37;16.93;;;;;;;;;;4844488;29;20555;-88
2024/01/14 08:55:52;;;;;;;38.97;16.60;;;;;;;;;;4865551;29;20634;-88
2024/01/14 08:58:57;;;;;;;36.37;16.97;;;;;;;;;;4866391;29;20559;-88
2024/01/14 09:02:02;;;;;;;35.17;16.90;;;;;;;;;;4834622;29;20559;-87
2024/01/14 09:05:06;;;;;;;35.27;16.70;;;;;;;;;;4843674;29;20630;-86
2024/01/14 09:08:30;;;;;;;35.47;15.97;;;;;;;;;;4855251;29;20961;-87
2024/01/14 09:11:36;;;;;;;33.07;15.07;;;;;;;;;;4865354;29;20548;-87
2024/01/14 09:14:41;;;;;;;36.13;19.63;;;;;;;;;;4843215;29;20662;-87
2024/01/14 09:17:47;;;;;;;41.37;19.03;;;;;;;;;;4853536;29;20567;-87
2024/01/14 09:20:52;;;;;;;38.97;18.47;;;;;;;;;;4844014;29;20559;-87
2024/01/14 09:23:57;;;;;;;32.70;16.87;;;;;;;;;;4853320;29;20567;-87
2024/01/14 09:27:12;;;;;;;54.87;24.13;;;;;;;;;;4854223;29;20565;-87
2024/01/14 09:30:20;;;;;;;48.00;22.40;;;;;;;;;;4843681;29;20560;-87
2024/01/14 09:33:28;;;;;;;34.80;17.17;;;;;;;;;;4843903;29;20563;-84
2024/01/14 09:36:38;;;;;;;31.67;15.57;;;;;;;;;;4855125;29;20561;-88
2024/01/14 09:39:47;;;;;;;30.67;14.20;;;;;;;;;;4844284;29;20567;-88
2024/01/14 09:58:12;;;;;;;30.23;16.20;;;;;;;;;;4727821;30;21211;-88
2024/01/14 10:01:22;;;;;;;33.03;15.03;;;;;;;;;;4770752;30;20567;-89
2024/01/14 10:12:48;;;;;;;34.50;19.03;;;;;;;;;;4861476;29;20552;-90
2024/01/14 10:16:02;;;;;;;32.03;16.50;;;;;;;;;;4843655;29;20669;-88
2024/01/14 10:19:07;;;;;;;32.40;16.80;;;;;;;;;;4852953;29;20908;-89
2024/01/14 10:22:11;;;;;;;34.90;16.17;;;;;;;;;;4865283;29;20552;-89
2024/01/14 10:25:18;;;;;;;35.47;18.57;;;;;;;;;;4853482;29;20619;-89
2024/01/14 10:28:23;;;;;;;33.20;15.33;;;;;;;;;;4854679;29;20603;-89
2024/01/14 10:31:30;;;;;;;27.40;14.40;;;;;;;;;;4855160;29;20552;-89
2024/01/14 10:34:35;;;;;;;31.27;15.77;;;;;;;;;;4842801;29;20974;-89
2024/01/14 10:37:40;;;;;;;32.73;17.43;;;;;;;;;;4863447;29;21143;-90
2024/01/14 10:40:45;;;;;;;29.43;15.03;;;;;;;;;;4863613;29;20596;-89
2024/01/14 10:43:50;;;;;;;28.47;14.53;;;;;;;;;;4863460;29;20564;-90
2024/01/14 10:46:56;;;;;;;32.27;15.07;;;;;;;;;;4842494;29;20559;-90
2024/01/14 10:50:01;;;;;;;29.13;14.40;;;;;;;;;;4852868;29;20616;-90
2024/01/14 10:53:09;;;;;;;29.60;15.20;;;;;;;;;;4853249;29;21085;-88
2024/01/14 10:56:16;;;;;;;33.77;16.83;;;;;;;;;;4863630;29;20560;-87
2024/01/14 10:59:31;;;;;;;37.10;19.47;;;;;;;;;;4852871;29;20564;-92
2024/01/14 11:02:36;;;;;;;25.90;14.87;;;;;;;;;;4853515;29;20710;-89
2024/01/14 11:05:41;;;;;;;29.87;15.93;;;;;;;;;;4832358;29;20647;-91
2024/01/14 11:08:51;;;;;;;30.90;16.33;;;;;;;;;;4873813;29;20959;-90
2024/01/14 11:12:22;;;;;;;24.10;12.73;;;;;;;;;;4852904;29;21100;-89
2024/01/14 11:15:49;;;;;;;28.20;14.73;;;;;;;;;;4832104;29;21235;-89
2024/01/14 11:19:10;;;;;;;25.00;12.87;;;;;;;;;;4862550;29;20555;-90
2024/01/14 11:22:22;;;;;;;20.37;11.10;;;;;;;;;;4845545;29;20570;-90
2024/01/14 11:25:33;;;;;;;21.47;11.77;;;;;;;;;;4863078;29;20971;-89
2024/01/14 11:28:38;;;;;;;24.57;11.87;;;;;;;;;;4863573;29;21158;-89
2024/01/14 11:40:48;;;;;;;23.30;12.37;;;;;;;;;;4870542;29;20623;-89
2024/01/14 11:43:53;;;;;;;23.70;12.90;;;;;;;;;;4877611;29;21117;-89
2024/01/14 11:46:57;;;;;;;21.40;11.77;;;;;;;;;;4866799;29;20564;-89
2024/01/14 11:50:03;;;;;;;26.27;12.33;;;;;;;;;;4855696;29;20616;-89
2024/01/14 11:53:08;;;;;;;25.00;14.33;;;;;;;;;;4855490;29;20564;-89
2024/01/14 11:56:27;;;;;;;22.83;11.73;;;;;;;;;;4856268;29;21220;-85
2024/01/14 11:59:33;;;;;;;23.20;13.03;;;;;;;;;;4865908;29;20564;-91
2024/01/14 12:02:38;;;;;;;23.97;12.60;;;;;;;;;;4876416;29;20572;-86
2024/01/14 12:05:42;;;;;;;21.47;11.70;;;;;;;;;;4877225;29;20623;-86
2024/01/14 12:08:47;;;;;;;24.07;12.03;;;;;;;;;;4854899;29;20552;-85
2024/01/14 12:15:53;;;;;;;26.97;12.17;;;;;;;;;;4855035;29;20663;-90
2024/01/14 12:18:57;;;;;;;22.20;11.63;;;;;;;;;;4855063;29;20559;-90
2024/01/14 12:22:02;;;;;;;23.43;12.40;;;;;;;;;;4844437;29;20563;-90
2024/01/14 12:25:06;;;;;;;21.37;11.23;;;;;;;;;;4865769;29;21227;-89
2024/01/14 12:28:10;;;;;;;56.80;30.50;;;;;;;;;;4865652;29;20563;-90
2024/01/14 12:31:19;;;;;;;25.10;13.03;;;;;;;;;;4865021;29;20556;-90
2024/01/14 12:34:25;;;;;;;22.20;11.30;;;;;;;;;;4864858;29;20627;-90
2024/01/14 12:37:29;;;;;;;20.60;11.17;;;;;;;;;;4865320;29;20567;-90
2024/01/14 12:40:35;;;;;;;21.37;11.13;;;;;;;;;;4875170;29;20556;-90
2024/01/14 12:43:41;;;;;;;19.23;10.60;;;;;;;;;;4854631;29;20565;-90
2024/01/14 12:46:49;;;;;;;19.33;10.60;;;;;;;;;;4864938;29;21181;-90
2024/01/14 12:49:54;;;;;;;22.43;11.30;;;;;;;;;;4864946;29;20624;-90
2024/01/14 12:53:01;;;;;;;24.60;11.13;;;;;;;;;;4864846;29;20564;-90
2024/01/14 12:56:12;;;;;;;22.13;11.27;;;;;;;;;;4854709;29;20623;-90
2024/01/14 12:59:16;;;;;;;22.07;11.00;;;;;;;;;;4854800;29;20556;-89
2024/01/14 13:02:21;;;;;;;20.13;10.13;;;;;;;;;;4854042;29;20556;-89
2024/01/14 13:05:24;;;;;;;19.50;10.47;;;;;;;;;;4864938;29;20627;-90
2024/01/14 13:08:32;;;;;;;19.70;10.43;;;;;;;;;;4853643;29;20564;-88
2024/01/14 13:11:38;;;;;;;18.37;10.67;;;;;;;;;;4835321;29;20652;-90
2024/01/14 13:14:43;;;;;;;22.77;10.43;;;;;;;;;;4843354;29;20997;-90
2024/01/14 13:17:47;;;;;;;21.03;10.93;;;;;;;;;;4842975;29;20564;-90
2024/01/14 13:20:51;;;;;;;19.50;10.27;;;;;;;;;;4842899;29;21123;-90
2024/01/14 13:23:56;;;;;;;19.03;11.03;;;;;;;;;;4843509;29;20556;-90
2024/01/14 13:26:59;;;;;;;22.47;10.63;;;;;;;;;;4853695;29;20556;-90
2024/01/14 13:30:07;;;;;;;20.60;10.40;;;;;;;;;;4842815;29;20612;-90
2024/01/14 13:33:12;;;;;;;23.73;11.27;;;;;;;;;;4842969;29;20588;-89
2024/01/14 13:40:46;;;;;;;18.90;10.30;;;;;;;;;;4864837;29;20541;-92
2024/01/14 13:43:50;;;;;;;21.07;10.77;;;;;;;;;;4843505;29;20568;-89
2024/01/14 13:46:57;;;;;;;49.50;24.33;;;;;;;;;;4843382;29;20549;-88
2024/01/14 13:50:03;;;;;;;93.80;40.87;;;;;;;;;;4843270;29;20600;-90
2024/01/14 13:53:07;;;;;;;26.67;13.17;;;;;;;;;;4842665;29;20560;-90
2024/01/14 13:56:11;;;;;;;25.63;14.67;;;;;;;;;;4853340;29;20626;-90
2024/01/14 13:59:15;;;;;;;20.43;11.03;;;;;;;;;;4853231;29;20573;-90
2024/01/14 14:02:20;;;;;;;21.00;11.13;;;;;;;;;;4842669;29;20560;-90
2024/01/14 14:05:24;;;;;;;21.27;10.97;;;;;;;;;;4842405;29;20624;-90
2024/01/14 14:08:30;;;;;;;21.47;11.33;;;;;;;;;;4863744;29;20560;-90
2024/01/14 14:11:34;;;;;;;21.10;11.60;;;;;;;;;;4842171;29;20563;-90
2024/01/14 14:14:38;;;;;;;23.30;12.67;;;;;;;;;;4852792;29;20651;-90
2024/01/14 14:17:43;;;;;;;23.60;12.00;;;;;;;;;;4841942;29;20556;-90
2024/01/14 14:20:47;;;;;;;20.60;12.10;;;;;;;;;;4842316;29;20932;-89
2024/01/14 14:23:51;;;;;;;21.47;11.43;;;;;;;;;;4831728;29;20564;-90
2024/01/14 14:26:55;;;;;;;20.80;11.93;;;;;;;;;;4831626;29;21126;-90
2024/01/14 14:29:59;;;;;;;22.53;12.33;;;;;;;;;;4842331;29;21209;-90
2024/01/14 14:33:03;;;;;;;24.40;12.23;;;;;;;;;;4852355;29;20568;-89
2024/01/14 14:36:08;;;;;;;21.67;11.70;;;;;;;;;;4852184;29;20628;-88
2024/01/14 14:44:09;;;;;;;20.90;10.73;;;;;;;;;;4849723;29;20556;-90
2024/01/14 14:47:15;;;;;;;22.73;11.53;;;;;;;;;;4841514;29;20560;-90
2024/01/14 14:50:19;;;;;;;26.80;13.50;;;;;;;;;;4842295;29;20608;-89
2024/01/14 14:53:23;;;;;;;27.90;12.97;;;;;;;;;;4842362;29;20568;-90
2024/01/14 14:56:27;;;;;;;25.13;11.57;;;;;;;;;;4842393;29;20560;-89
2024/01/14 14:59:31;;;;;;;24.30;11.83;;;;;;;;;;4842174;29;20911;-90
2024/01/14 15:02:35;;;;;;;23.13;12.00;;;;;;;;;;4851598;29;20560;-89
2024/01/14 15:05:39;;;;;;;25.43;12.53;;;;;;;;;;4844299;29;20619;-86
2024/01/14 15:08:52;;;;;;;26.90;13.43;;;;;;;;;;4844512;29;20567;-89
2024/01/14 15:11:57;;;;;;;22.13;11.43;;;;;;;;;;4856135;29;20560;-87
2024/01/14 15:15:38;;;;;;;21.07;11.33;;;;;;;;;;4834211;29;21250;-88
2024/01/14 15:18:57;;;;;;;24.43;12.27;;;;;;;;;;4835101;29;21133;-88
2024/01/14 15:22:12;;;;;;;24.43;11.70;;;;;;;;;;4856824;29;20560;-88
2024/01/14 15:25:19;;;;;;;20.53;11.17;;;;;;;;;;4826461;29;20999;-88
2024/01/14 15:28:30;;;;;;;23.30;11.83;;;;;;;;;;4826629;29;20920;-89
2024/01/14 15:31:56;;;;;;;;;;;;;;;;;;;;;
2024/01/14 15:35:24;;;;;;;21.87;11.30;;;;;;;;;;4837798;29;20712;-88
2024/01/14 15:38:33;;;;;;;21.83;12.13;;;;;;;;;;4836288;29;20567;-88
2024/01/14 15:41:44;;;;;;;22.90;11.73;;;;;;;;;;4836729;29;20571;-88
2024/01/14 15:44:49;;;;;;;22.00;11.37;;;;;;;;;;4825218;29;20628;-88
2024/01/14 15:47:54;;;;;;;23.37;11.87;;;;;;;;;;4815894;29;20567;-90
2024/01/14 15:50:58;;;;;;;24.60;12.07;;;;;;;;;;4827259;29;20635;-90
2024/01/14 15:54:03;;;;;;;21.90;11.20;;;;;;;;;;4815829;29;20572;-90
2024/01/14 15:57:07;;;;;;;22.93;11.63;;;;;;;;;;4835759;29;20564;-89
2024/01/14 16:00:15;;;;;;;21.60;11.17;;;;;;;;;;4825807;29;20567;-89
2024/01/14 16:03:24;;;;;;;22.27;10.70;;;;;;;;;;4836105;29;21121;-86
2024/01/14 16:06:27;;;;;;;23.80;11.40;;;;;;;;;;4836003;29;20572;-90
2024/01/14 16:09:31;;;;;;;22.90;11.40;;;;;;;;;;4821025;29;21129;-89
2024/01/14 16:12:36;;;;;;;22.23;11.37;;;;;;;;;;4835625;29;20556;-88
2024/01/14 16:15:41;;;;;;;23.07;11.33;;;;;;;;;;4835449;29;20651;-87
2024/01/14 16:18:45;;;;;;;23.03;10.93;;;;;;;;;;4826613;29;20576;-87
2024/01/14 16:21:50;;;;;;;24.07;12.03;;;;;;;;;;4836460;29;20660;-87
2024/01/14 16:24:55;;;;;;;24.63;11.47;;;;;;;;;;4836743;29;20639;-87
2024/01/14 16:28:02;;;;;;;24.87;11.80;;;;;;;;;;4836559;29;20585;-87
2024/01/14 16:31:06;;;;;;;23.47;12.47;;;;;;;;;;4825979;29;20624;-87
2024/01/14 16:34:10;;;;;;;22.40;11.53;;;;;;;;;;4836275;29;20657;-87
2024/01/14 16:37:15;;;;;;;23.27;12.07;;;;;;;;;;4826261;29;20573;-86
2024/01/14 16:40:20;;;;;;;25.20;12.20;;;;;;;;;;4826562;29;20568;-86
2024/01/14 16:43:25;;;;;;;27.10;13.27;;;;;;;;;;4836163;29;20572;-86
2024/01/14 16:46:30;;;;;;;26.17;12.63;;;;;;;;;;4836536;29;20592;-86
2024/01/14 16:49:34;;;;;;;29.43;13.07;;;;;;;;;;4825679;29;20571;-87
2024/01/14 16:52:40;;;;;;;26.67;14.23;;;;;;;;;;4836554;29;20560;-86
2024/01/14 16:55:46;;;;;;;25.07;13.30;;;;;;;;;;4826886;29;20631;-86
2024/01/14 16:58:51;;;;;;;28.57;14.17;;;;;;;;;;4826114;29;20932;-87
2024/01/14 17:01:55;;;;;;;30.27;14.07;;;;;;;;;;4825052;29;21130;-87
2024/01/14 17:04:59;;;;;;;33.77;14.80;;;;;;;;;;4825236;29;20635;-86
2024/01/14 17:08:04;;;;;;;26.47;13.27;;;;;;;;;;4824868;29;21157;-87
2024/01/14 17:11:10;;;;;;;31.27;14.00;;;;;;;;;;4824900;29;20628;-87
2024/01/14 17:14:25;;;;;;;27.93;13.33;;;;;;;;;;4835141;29;20631;-87
2024/01/14 17:17:53;;;;;;;28.30;12.77;;;;;;;;;;4847190;29;20588;-87
2024/01/14 17:20:57;;;;;;;28.63;13.53;;;;;;;;;;4825059;29;20568;-87
2024/01/14 17:24:01;;;;;;;26.03;13.63;;;;;;;;;;4835106;29;20592;-86
2024/01/14 17:27:07;;;;;;;29.53;13.77;;;;;;;;;;4835835;29;20576;-87
2024/01/14 17:30:12;;;;;;;30.10;14.67;;;;;;;;;;4824881;29;20578;-86
2024/01/14 17:33:16;;;;;;;31.27;14.27;;;;;;;;;;4824748;29;20564;-86
2024/01/14 17:36:21;;;;;;;27.57;12.77;;;;;;;;;;4835385;29;20572;-86
2024/01/14 17:39:26;;;;;;;30.13;15.00;;;;;;;;;;4824713;29;21193;-87
2024/01/14 17:42:34;;;;;;;31.17;13.67;;;;;;;;;;4835593;29;20924;-86
2024/01/14 17:45:38;;;;;;;31.73;14.37;;;;;;;;;;4835404;29;20660;-87
2024/01/14 17:48:44;;;;;;;27.30;13.83;;;;;;;;;;4824686;29;20576;-86
2024/01/14 17:51:49;;;;;;;31.37;14.27;;;;;;;;;;4835199;29;20616;-86
2024/01/14 17:54:54;;;;;;;32.57;14.77;;;;;;;;;;4835021;29;20631;-86
2024/01/14 17:57:58;;;;;;;29.57;14.20;;;;;;;;;;4824010;29;20568;-86
2024/01/14 18:01:05;;;;;;;38.47;15.40;;;;;;;;;;4824147;29;20567;-87
2024/01/14 18:04:11;;;;;;;27.53;13.67;;;;;;;;;;4824735;29;20631;-87
2024/01/14 18:07:15;;;;;;;30.30;15.53;;;;;;;;;;4824058;29;20568;-88
2024/01/14 18:10:23;;;;;;;31.83;15.03;;;;;;;;;;4823950;29;20568;-87
2024/01/14 18:13:27;;;;;;;27.30;13.33;;;;;;;;;;4823845;29;20573;-87
2024/01/14 18:16:31;;;;;;;30.80;14.93;;;;;;;;;;4834797;29;20635;-87
2024/01/14 18:19:36;;;;;;;28.80;13.90;;;;;;;;;;4834510;29;20691;-87
2024/01/14 18:22:41;;;;;;;28.97;14.70;;;;;;;;;;4823976;29;21130;-87
2024/01/14 18:25:45;;;;;;;30.30;14.83;;;;;;;;;;4839998;29;20631;-87
2024/01/14 18:28:50;;;;;;;29.97;13.97;;;;;;;;;;4843128;29;20571;-87
2024/01/14 18:31:57;;;;;;;28.40;14.13;;;;;;;;;;4829633;29;20623;-87
2024/01/14 18:35:02;;;;;;;25.80;12.63;;;;;;;;;;4839135;29;20632;-87
2024/01/14 18:38:06;;;;;;;30.83;13.80;;;;;;;;;;4828247;29;20572;-87
2024/01/14 18:41:10;;;;;;;29.33;14.40;;;;;;;;;;4826740;29;21132;-87
2024/01/14 18:44:18;;;;;;;29.70;14.83;;;;;;;;;;4825716;29;20631;-87
2024/01/14 18:47:23;;;;;;;28.63;13.90;;;;;;;;;;4836093;29;20568;-87
2024/01/14 18:50:28;;;;;;;32.67;14.90;;;;;;;;;;4846857;29;20564;-87
2024/01/14 18:53:32;;;;;;;27.80;14.27;;;;;;;;;;4824701;29;20565;-87